createdAt,value
2023-07-05T00:00:08.637Z,98528.45
2023-07-05T00:01:50.222Z,98528.15
2023-07-05T00:03:30.901Z,98533.91
2023-07-05T00:05:05.815Z,98532.16
2023-07-05T00:07:00.054Z,98531.33
2023-07-05T00:09:01.942Z,98534.61
2023-07-05T00:11:02.568Z,98536.35
2023-07-05T00:13:04.493Z,98536.25
2023-07-05T00:15:06.275Z,98535.05
2023-07-05T00:17:07.363Z,98537.77
2023-07-05T00:19:09.020Z,98529.16
2023-07-05T00:20:58.036Z,98535.20
2023-07-05T00:22:59.762Z,98536.86
2023-07-05T00:25:01.616Z,98539.77
2023-07-05T00:27:03.130Z,98534.88
2023-07-05T00:29:05.242Z,98531.02
2023-07-05T00:30:59.288Z,98534.95
2023-07-05T00:32:37.523Z,98533.25
2023-07-05T00:34:22.447Z,98535.63
2023-07-05T00:36:24.782Z,98535.85
2023-07-05T00:38:26.761Z,98536.27
2023-07-05T00:40:21.369Z,98533.17
2023-07-05T00:42:23.536Z,98532.65
2023-07-05T00:44:25.577Z,98531.12
2023-07-05T00:45:59.530Z,98531.95
2023-07-05T00:48:01.771Z,98528.63
2023-07-05T00:49:56.053Z,98533.85
2023-07-05T00:51:57.694Z,98514.70
2023-07-05T00:53:59.407Z,98530.33
2023-07-05T00:56:01.377Z,98526.61
2023-07-05T00:58:03.108Z,98528.54
2023-07-05T00:59:58.952Z,98528.03
2023-07-05T01:02:03.422Z,98526.23
2023-07-05T01:04:05.704Z,98523.50
2023-07-05T01:06:07.666Z,98525.55
2023-07-05T01:07:59.357Z,98521.41
2023-07-05T01:10:01.153Z,98521.32
2023-07-05T01:11:55.481Z,98524.34
2023-07-05T01:13:56.150Z,98527.45
2023-07-05T01:15:54.640Z,98528.83
2023-07-05T01:17:56.739Z,98528.94
2023-07-05T01:19:52.183Z,98526.56
2023-07-05T01:21:44.224Z,98527.13
2023-07-05T01:23:44.726Z,98529.48
2023-07-05T01:25:46.315Z,98529.45
2023-07-05T01:27:41.686Z,98518.08
2023-07-05T01:29:43.691Z,98529.89
2023-07-05T01:31:45.212Z,98527.49
2023-07-05T01:33:46.896Z,98531.67
2023-07-05T01:35:46.829Z,98530.05
2023-07-05T01:37:37.862Z,98532.41
2023-07-05T01:39:39.533Z,98532.85
2023-07-05T01:41:23.219Z,98530.83
2023-07-05T01:43:15.787Z,98530.49
2023-07-05T01:45:02.196Z,98529.09
2023-07-05T01:46:57.328Z,98519.59
2023-07-05T01:48:58.934Z,98522.94
2023-07-05T01:50:41.620Z,98529.09
2023-07-05T01:52:43.296Z,98521.27
2023-07-05T01:54:38.301Z,98531.02
2023-07-05T01:56:32.948Z,98527.82
2023-07-05T01:58:34.632Z,98528.84
2023-07-05T02:00:19.114Z,98532.21
2023-07-05T02:02:21.074Z,98528.90
2023-07-05T02:04:23.075Z,98528.86
2023-07-05T02:06:24.795Z,98529.05
2023-07-05T02:08:18.650Z,98530.86
2023-07-05T02:10:20.724Z,98526.95
2023-07-05T02:12:21.908Z,98527.33
2023-07-05T02:14:13.902Z,98528.79
2023-07-05T02:15:58.303Z,98533.33
2023-07-05T02:18:00.245Z,98530.42
2023-07-05T02:19:56.299Z,98526.84
2023-07-05T02:21:47.113Z,98524.54
2023-07-05T02:23:42.883Z,98526.73
2023-07-05T02:25:44.462Z,98525.76
2023-07-05T02:27:46.467Z,98525.38
2023-07-05T02:29:43.733Z,98521.45
2023-07-05T02:31:45.836Z,98519.56
2023-07-05T02:33:46.780Z,98517.88
2023-07-05T02:35:48.150Z,98519.23
2023-07-05T02:37:41.001Z,98521.40
2023-07-05T02:39:22.167Z,98516.21
2023-07-05T02:41:23.846Z,98519.91
2023-07-05T02:43:05.000Z,98517.56
2023-07-05T02:44:59.954Z,98519.89
2023-07-05T02:46:55.587Z,98519.35
2023-07-05T02:48:40.606Z,98522.20
2023-07-05T02:50:35.206Z,98520.27
2023-07-05T02:52:25.814Z,98521.90
2023-07-05T02:54:20.437Z,98525.03
2023-07-05T02:56:11.294Z,98526.16
2023-07-05T02:57:59.400Z,98526.25
2023-07-05T02:59:52.279Z,98531.20
2023-07-05T03:01:46.774Z,98528.86
2023-07-05T03:03:31.207Z,98529.25
2023-07-05T03:05:26.599Z,98527.20
2023-07-05T03:07:28.549Z,98524.55
2023-07-05T03:09:11.941Z,98525.30
2023-07-05T03:11:13.759Z,98525.90
2023-07-05T03:13:15.603Z,98524.61
2023-07-05T03:15:17.344Z,98525.81
2023-07-05T03:17:10.331Z,98521.60
2023-07-05T03:18:48.665Z,98528.45
2023-07-05T03:20:50.237Z,98530.30
2023-07-05T03:22:36.942Z,98536.09
2023-07-05T03:24:33.673Z,98529.70
2023-07-05T03:26:27.929Z,98534.70
2023-07-05T03:28:29.335Z,98535.28
2023-07-05T03:30:12.249Z,98536.84
2023-07-05T03:32:00.104Z,98536.11
2023-07-05T03:33:55.924Z,98535.84
2023-07-05T03:35:46.827Z,98536.27
2023-07-05T03:37:45.507Z,98539.94
2023-07-05T03:39:47.247Z,98537.39
2023-07-05T03:41:34.322Z,98537.34
2023-07-05T03:43:36.355Z,98537.05
2023-07-05T03:45:28.149Z,98539.81
2023-07-05T03:47:30.145Z,98533.77
2023-07-05T03:49:31.644Z,98537.08
2023-07-05T03:51:26.385Z,98539.55
2023-07-05T03:53:28.514Z,98544.63
2023-07-05T03:55:30.625Z,98544.92
2023-07-05T03:57:12.007Z,98542.88
2023-07-05T03:59:07.332Z,98541.49
2023-07-05T04:01:09.376Z,98538.07
2023-07-05T04:03:10.997Z,98534.48
2023-07-05T04:05:13.037Z,98542.41
2023-07-05T04:07:04.612Z,98537.42
2023-07-05T04:09:06.413Z,98538.85
2023-07-05T04:11:06.866Z,98541.77
2023-07-05T04:13:03.030Z,98542.02
2023-07-05T04:14:57.274Z,98545.58
2023-07-05T04:16:58.807Z,98546.90
2023-07-05T04:18:50.685Z,98550.36
2023-07-05T04:20:52.874Z,98553.44
2023-07-05T04:22:43.492Z,98548.12
2023-07-05T04:24:27.263Z,98549.82
2023-07-05T04:26:21.856Z,98547.79
2023-07-05T04:28:23.979Z,98543.81
2023-07-05T04:30:14.500Z,98545.59
2023-07-05T04:32:10.189Z,98541.34
2023-07-05T04:33:51.064Z,98544.39
2023-07-05T04:35:47.600Z,98547.15
2023-07-05T04:37:49.537Z,98538.80
2023-07-05T04:39:44.967Z,98544.48
2023-07-05T04:41:47.309Z,98542.83
2023-07-05T04:43:48.960Z,98542.34
2023-07-05T04:45:50.585Z,98543.05
2023-07-05T04:47:52.730Z,98545.45
2023-07-05T04:49:45.290Z,98542.91
2023-07-05T04:51:41.907Z,98542.83
2023-07-05T04:53:33.059Z,98540.96
2023-07-05T04:55:34.846Z,98542.55
2023-07-05T04:57:36.550Z,98540.05
2023-07-05T04:59:30.496Z,98542.13
2023-07-05T05:01:32.614Z,98548.04
2023-07-05T05:03:34.923Z,98547.55
2023-07-05T05:05:36.230Z,98546.80
2023-07-05T05:07:36.553Z,98546.98
2023-07-05T05:09:26.008Z,98548.20
2023-07-05T05:11:20.271Z,98542.98
2023-07-05T05:13:09.129Z,98548.62
2023-07-05T05:15:10.589Z,98545.23
2023-07-05T05:16:54.135Z,98547.83
2023-07-05T05:18:39.603Z,98546.36
2023-07-05T05:20:31.623Z,98544.48
2023-07-05T05:22:33.041Z,98545.71
2023-07-05T05:24:34.820Z,98548.61
2023-07-05T05:26:36.332Z,98542.34
2023-07-05T05:28:38.162Z,98554.60
2023-07-05T05:30:29.643Z,98552.82
2023-07-05T05:32:24.024Z,98554.47
2023-07-05T05:34:25.728Z,98555.28
2023-07-05T05:36:27.285Z,98552.77
2023-07-05T05:38:29.250Z,98552.77
2023-07-05T05:40:24.980Z,98555.69
2023-07-05T05:42:27.130Z,98553.73
2023-07-05T05:44:28.834Z,98558.36
2023-07-05T05:46:30.887Z,98555.41
2023-07-05T05:48:32.969Z,98552.64
2023-07-05T05:50:34.419Z,98547.03
2023-07-05T05:52:29.992Z,98547.13
2023-07-05T05:54:31.746Z,98545.86
2023-07-05T05:56:33.303Z,98541.73
2023-07-05T05:58:35.101Z,98538.55
2023-07-05T06:00:36.849Z,98538.80
2023-07-05T06:02:38.350Z,98543.45
2023-07-05T06:04:40.309Z,98544.43
2023-07-05T06:06:42.143Z,98546.02
2023-07-05T06:08:43.924Z,98543.34
2023-07-05T06:10:44.624Z,98546.10
2023-07-05T06:12:37.157Z,98544.25
2023-07-05T06:14:38.484Z,98546.45
2023-07-05T06:16:38.598Z,98542.39
2023-07-05T06:18:40.335Z,98541.56
2023-07-05T06:20:42.340Z,98543.65
2023-07-05T06:22:44.159Z,98542.76
2023-07-05T06:24:45.616Z,98539.14
2023-07-05T06:26:46.434Z,98541.50
2023-07-05T06:28:47.824Z,98540.81
2023-07-05T06:30:49.687Z,98540.11
2023-07-05T06:32:51.316Z,98538.30
2023-07-05T06:34:42.872Z,98530.45
2023-07-05T06:36:44.590Z,98534.52
2023-07-05T06:38:44.781Z,98531.30
2023-07-05T06:40:46.356Z,98531.15
2023-07-05T06:42:48.277Z,98529.66
2023-07-05T06:44:45.137Z,98528.61
2023-07-05T06:46:39.668Z,98522.67
2023-07-05T06:48:36.671Z,98518.16
2023-07-05T06:50:36.940Z,98522.63
2023-07-05T06:52:31.155Z,98520.85
2023-07-05T06:54:31.615Z,98516.77
2023-07-05T06:56:33.778Z,98511.52
2023-07-05T06:58:35.255Z,98511.98
2023-07-05T07:00:35.556Z,98518.64
2023-07-05T07:02:37.096Z,98516.88
2023-07-05T07:04:38.769Z,98516.48
2023-07-05T07:06:40.508Z,98511.02
2023-07-05T07:08:41.881Z,98507.59
2023-07-05T07:10:43.978Z,98513.16
2023-07-05T07:12:45.670Z,98511.40
2023-07-05T07:14:47.287Z,98509.21
2023-07-05T07:16:48.088Z,98509.59
2023-07-05T07:18:50.061Z,98509.07
2023-07-05T07:20:51.827Z,98509.55
2023-07-05T07:22:52.681Z,98508.46
2023-07-05T07:24:54.091Z,98500.46
2023-07-05T07:26:48.617Z,98502.98
2023-07-05T07:28:50.238Z,98496.95
2023-07-05T07:30:51.875Z,98500.05
2023-07-05T07:32:44.788Z,98499.40
2023-07-05T07:34:39.223Z,98496.44
2023-07-05T07:36:40.845Z,98499.61
2023-07-05T07:38:40.954Z,98495.73
2023-07-05T07:40:42.801Z,98495.29
2023-07-05T07:42:44.543Z,98496.58
2023-07-05T07:44:46.247Z,98496.40
2023-07-05T07:46:47.725Z,98493.98
2023-07-05T07:48:42.295Z,98491.33
2023-07-05T07:50:44.112Z,98491.34
2023-07-05T07:52:45.925Z,98488.38
2023-07-05T07:54:47.799Z,98488.53
2023-07-05T07:56:49.698Z,98489.80
2023-07-05T07:58:51.437Z,98490.02
2023-07-05T08:00:46.033Z,98487.50
2023-07-05T08:02:47.779Z,98493.59
2023-07-05T08:04:49.280Z,98491.87
2023-07-05T08:06:38.297Z,98483.46
2023-07-05T08:08:39.704Z,98485.44
2023-07-05T08:10:41.176Z,98486.77
2023-07-05T08:12:41.424Z,98483.56
2023-07-05T08:14:43.121Z,98484.95
2023-07-05T08:16:43.586Z,98483.23
2023-07-05T08:18:45.483Z,98482.48
2023-07-05T08:20:47.214Z,98481.95
2023-07-05T08:22:41.076Z,98478.26
2023-07-05T08:24:42.722Z,98476.77
2023-07-05T08:26:34.167Z,98478.55
2023-07-05T08:28:35.865Z,98476.46
2023-07-05T08:30:37.302Z,98478.22
2023-07-05T08:32:39.232Z,98480.25
2023-07-05T08:34:41.238Z,98481.33
2023-07-05T08:36:25.295Z,98476.09
2023-07-05T08:38:27.209Z,98474.66
2023-07-05T08:40:29.318Z,98466.73
2023-07-05T08:42:30.823Z,98464.12
2023-07-05T08:44:32.478Z,98462.48
2023-07-05T08:46:34.487Z,98459.98
2023-07-05T08:48:36.258Z,98458.86
2023-07-05T08:50:39.982Z,98456.08
2023-07-05T08:52:41.281Z,98457.75
2023-07-05T08:54:42.828Z,98451.98
2023-07-05T08:56:34.213Z,98454.06
2023-07-05T08:58:28.801Z,98453.98
2023-07-05T09:00:23.727Z,98453.86
2023-07-05T09:02:22.070Z,98453.54
2023-07-05T09:04:06.560Z,98457.44
2023-07-05T09:06:08.287Z,98449.52
2023-07-05T09:08:01.232Z,98451.86
2023-07-05T09:09:56.461Z,98450.23
2023-07-05T09:11:34.712Z,98453.19
2023-07-05T09:13:36.788Z,98450.94
2023-07-05T09:15:38.489Z,98445.48
2023-07-05T09:17:32.736Z,98443.02
2023-07-05T09:19:28.400Z,98440.15
2023-07-05T09:21:30.422Z,98437.20
2023-07-05T09:23:32.083Z,98437.20
2023-07-05T09:25:26.589Z,98440.66
2023-07-05T09:27:32.245Z,98434.79
2023-07-05T09:29:18.555Z,98438.48
2023-07-05T09:31:08.850Z,98429.89
2023-07-05T09:33:02.191Z,98433.42
2023-07-05T09:34:52.819Z,98429.23
2023-07-05T09:36:54.433Z,98425.64
2023-07-05T09:38:38.626Z,98425.66
2023-07-05T09:40:39.986Z,98431.30
2023-07-05T09:42:24.015Z,98424.15
2023-07-05T09:44:26.375Z,98420.16
2023-07-05T09:46:01.650Z,98415.95
2023-07-05T09:47:46.462Z,98410.08
2023-07-05T09:49:32.910Z,98416.15
2023-07-05T09:51:17.137Z,98412.73
2023-07-05T09:53:12.541Z,98415.86
2023-07-05T09:55:08.022Z,98418.71
2023-07-05T09:56:52.293Z,98415.27
2023-07-05T09:58:46.763Z,98414.80
2023-07-05T10:00:30.356Z,98414.48
2023-07-05T10:02:32.201Z,98416.73
2023-07-05T10:04:34.321Z,98411.41
2023-07-05T10:06:36.242Z,98409.52
2023-07-05T10:08:17.696Z,98410.98
2023-07-05T10:10:19.460Z,98406.81
2023-07-05T10:12:01.062Z,98403.16
2023-07-05T10:13:42.360Z,98400.83
2023-07-05T10:15:35.866Z,98400.83
2023-07-05T10:17:16.338Z,98403.63
2023-07-05T10:19:39.315Z,98401.33
2023-07-05T10:21:14.838Z,98405.94
2023-07-05T10:22:47.987Z,98406.52
2023-07-05T10:24:28.741Z,98401.40
2023-07-05T10:26:02.094Z,98396.42
2023-07-05T10:27:42.441Z,98394.98
2023-07-05T10:29:27.274Z,98396.10
2023-07-05T10:30:49.370Z,98384.66
2023-07-05T10:32:30.297Z,98390.70
2023-07-05T10:34:14.487Z,98387.45
2023-07-05T10:35:47.686Z,98389.34
2023-07-05T10:37:16.987Z,98382.61
2023-07-05T10:38:46.411Z,98383.59
2023-07-05T10:40:19.514Z,98378.42
2023-07-05T10:41:52.986Z,98379.27
2023-07-05T10:43:28.232Z,98371.73
2023-07-05T10:45:12.819Z,98371.48
2023-07-05T10:46:53.109Z,98369.24
2023-07-05T10:48:19.373Z,98364.96
2023-07-05T10:50:12.806Z,98361.92
2023-07-05T10:51:42.146Z,98361.55
2023-07-05T10:53:07.917Z,98357.91
2023-07-05T10:54:41.590Z,98360.99
2023-07-05T10:56:18.360Z,98361.73
2023-07-05T10:57:40.125Z,98358.34
2023-07-05T10:59:14.835Z,98359.04
2023-07-05T11:00:50.761Z,98358.27
2023-07-05T11:02:44.135Z,98357.49
2023-07-05T11:04:18.603Z,98354.52
2023-07-05T11:05:59.449Z,98348.55
2023-07-05T11:07:32.833Z,98349.85
2023-07-05T11:09:09.289Z,98337.52
2023-07-05T11:10:43.372Z,98337.52
2023-07-05T11:12:22.283Z,98335.58
2023-07-05T11:13:55.393Z,98338.35
2023-07-05T11:15:35.745Z,98337.34
2023-07-05T11:17:29.722Z,98342.59
2023-07-05T11:19:13.388Z,98336.20
2023-07-05T11:20:49.135Z,98345.52
2023-07-05T11:22:33.941Z,98340.55
2023-07-05T11:24:07.300Z,98341.70
2023-07-05T11:25:33.419Z,98339.05
2023-07-05T11:27:23.652Z,98335.41
2023-07-05T11:28:56.544Z,98324.84
2023-07-05T11:30:30.002Z,98323.29
2023-07-05T11:32:15.106Z,98316.21
2023-07-05T11:33:51.263Z,98313.66
2023-07-05T11:35:24.743Z,98312.40
2023-07-05T11:36:59.388Z,98318.68
2023-07-05T11:38:44.374Z,98313.77
2023-07-05T11:40:20.131Z,98319.77
2023-07-05T11:41:41.987Z,98323.79
2023-07-05T11:43:23.498Z,98320.33
2023-07-05T11:44:59.363Z,98315.02
2023-07-05T11:46:30.244Z,98315.31
2023-07-05T11:48:23.556Z,98310.34
2023-07-05T11:49:45.577Z,98305.55
2023-07-05T11:51:36.812Z,98305.33
2023-07-05T11:53:14.653Z,98299.93
2023-07-05T11:54:50.428Z,98293.06
2023-07-05T11:56:23.477Z,98293.27
2023-07-05T11:57:47.532Z,98282.96
2023-07-05T11:59:22.763Z,98284.89
2023-07-05T12:01:07.432Z,98281.70
2023-07-05T12:02:31.622Z,98277.63
2023-07-05T12:04:16.300Z,98259.05
2023-07-05T12:06:01.278Z,98259.05
2023-07-05T12:07:45.637Z,98275.40
2023-07-05T12:09:15.108Z,98269.13
2023-07-05T12:10:56.019Z,98267.07
2023-07-05T12:12:35.381Z,98265.05
2023-07-05T12:14:18.484Z,98259.71
2023-07-05T12:15:55.040Z,98250.03
2023-07-05T12:17:31.016Z,98245.13
2023-07-05T12:19:17.218Z,98252.02
2023-07-05T12:20:48.067Z,98251.77
2023-07-05T12:22:36.961Z,98244.05
2023-07-05T12:24:01.357Z,98239.74
2023-07-05T12:25:46.211Z,98237.02
2023-07-05T12:27:22.005Z,98234.42
2023-07-05T12:29:12.584Z,98237.85
2023-07-05T12:30:34.590Z,98236.64
2023-07-05T12:32:27.495Z,98237.55
2023-07-05T12:34:03.147Z,98236.95
2023-07-05T12:35:44.388Z,98237.90
2023-07-05T12:37:08.654Z,98238.53
2023-07-05T12:38:44.047Z,98235.11
2023-07-05T12:40:15.239Z,98233.01
2023-07-05T12:41:41.996Z,98231.31
2023-07-05T12:43:27.787Z,98231.02
2023-07-05T12:45:17.081Z,98224.20
2023-07-05T12:46:46.907Z,98211.23
2023-07-05T12:48:22.880Z,98213.84
2023-07-05T12:49:46.964Z,98214.85
2023-07-05T12:51:11.726Z,98210.75
2023-07-05T12:52:56.501Z,98203.41
2023-07-05T12:54:41.590Z,98201.67
2023-07-05T12:56:05.763Z,98209.11
2023-07-05T12:57:48.748Z,98213.27
2023-07-05T12:59:39.073Z,98209.70
2023-07-05T13:01:20.120Z,98206.52
2023-07-05T13:03:12.478Z,98197.09
2023-07-05T13:04:48.648Z,98199.08
2023-07-05T13:06:24.131Z,98191.95
2023-07-05T13:07:57.761Z,98190.88
2023-07-05T13:09:29.663Z,98185.77
2023-07-05T13:11:15.646Z,98181.54
2023-07-05T13:13:00.531Z,98190.83
2023-07-05T13:14:22.069Z,98191.59
2023-07-05T13:15:55.043Z,98183.75
2023-07-05T13:17:40.134Z,98181.88
2023-07-05T13:19:34.675Z,98175.42
2023-07-05T13:21:11.104Z,98175.15
2023-07-05T13:22:56.818Z,98177.71
2023-07-05T13:24:51.692Z,98176.02
2023-07-05T13:26:44.672Z,98174.30
2023-07-05T13:28:31.286Z,98177.30
2023-07-05T13:30:25.692Z,98177.58
2023-07-05T13:32:13.710Z,98168.14
2023-07-05T13:33:46.465Z,98170.16
2023-07-05T13:37:40.765Z,98169.09
2023-07-05T13:39:25.617Z,98166.40
2023-07-05T13:41:00.813Z,98168.48
2023-07-05T13:42:45.433Z,98168.65
2023-07-05T13:44:38.717Z,98171.52
2023-07-05T13:46:24.731Z,98171.05
2023-07-05T13:48:05.283Z,98168.48
2023-07-05T13:49:50.550Z,98164.88
2023-07-05T13:51:40.702Z,98164.80
2023-07-05T13:53:27.507Z,98156.80
2023-07-05T13:55:12.244Z,98153.08
2023-07-05T13:56:56.920Z,98154.08
2023-07-05T13:58:41.837Z,98152.87
2023-07-05T14:00:17.026Z,98153.55
2023-07-05T14:01:50.641Z,98148.98
2023-07-05T14:03:40.646Z,98152.12
2023-07-05T14:05:31.327Z,98151.09
2023-07-05T14:07:15.725Z,98152.73
2023-07-05T14:09:00.716Z,98149.98
2023-07-05T14:10:45.649Z,98146.02
2023-07-05T14:12:30.385Z,98150.80
2023-07-05T14:14:03.388Z,98150.05
2023-07-05T14:15:36.874Z,98156.77
2023-07-05T14:17:21.723Z,98154.25
2023-07-05T14:19:03.106Z,98152.25
2023-07-05T14:20:47.783Z,98150.73
2023-07-05T14:22:36.459Z,98146.73
2023-07-05T14:24:18.020Z,98148.98
2023-07-05T14:26:02.528Z,98148.78
2023-07-05T14:27:26.262Z,98147.24
2023-07-05T14:29:14.148Z,98150.65
2023-07-05T14:30:54.781Z,98147.44
2023-07-05T14:32:49.759Z,98147.58
2023-07-05T14:34:42.945Z,98142.88
2023-07-05T14:36:36.712Z,98142.52
2023-07-05T14:38:09.904Z,98140.77
2023-07-05T14:39:54.570Z,98139.02
2023-07-05T14:41:35.089Z,98138.17
2023-07-05T14:43:19.947Z,98139.25
2023-07-05T14:47:03.770Z,98144.86
2023-07-05T14:48:48.380Z,98141.50
2023-07-05T14:50:41.573Z,98140.38
2023-07-05T14:52:35.794Z,98146.73
2023-07-05T14:54:16.253Z,98146.38
2023-07-05T14:56:02.964Z,98135.46
2023-07-05T14:57:47.692Z,98144.60
2023-07-05T14:59:41.062Z,98138.38
2023-07-05T15:01:05.237Z,98139.21
2023-07-05T15:02:42.684Z,98137.84
2023-07-05T15:04:09.227Z,98136.28
2023-07-05T15:05:54.132Z,98136.77
2023-07-05T15:07:39.464Z,98138.14
2023-07-05T15:09:29.425Z,98140.83
2023-07-05T15:11:03.622Z,98139.73
2023-07-05T15:12:48.377Z,98142.86
2023-07-05T15:14:42.725Z,98149.55
2023-07-05T15:16:15.674Z,98157.41
2023-07-05T15:17:48.678Z,98200.73
2023-07-05T15:19:24.553Z,98194.13
2023-07-05T15:21:18.732Z,98208.69
2023-07-05T15:22:47.790Z,98211.30
2023-07-05T15:24:33.627Z,98214.98
2023-07-05T15:26:07.039Z,98226.58
2023-07-05T15:27:52.013Z,98238.73
2023-07-05T15:29:34.733Z,98249.33
2023-07-05T15:31:19.907Z,98255.81
2023-07-05T15:33:05.104Z,98253.19
2023-07-05T15:34:42.400Z,98251.64
2023-07-05T15:36:35.226Z,98243.31
2023-07-05T15:38:20.254Z,98250.39
2023-07-05T15:40:05.402Z,98250.48
2023-07-05T15:41:50.189Z,98247.13
2023-07-05T15:43:34.928Z,98246.48
2023-07-05T15:45:10.274Z,98234.80
2023-07-05T15:46:50.669Z,98231.04
2023-07-05T15:48:31.851Z,98234.51
2023-07-05T15:50:25.732Z,98243.02
2023-07-05T15:52:10.435Z,98243.78
2023-07-05T15:53:54.948Z,98239.45
2023-07-05T15:55:40.746Z,98241.59
2023-07-05T15:57:30.725Z,98240.09
2023-07-05T15:59:18.497Z,98245.73
2023-07-05T16:01:12.004Z,98255.88
2023-07-05T16:02:58.688Z,98266.52
2023-07-05T16:04:38.983Z,98270.35
2023-07-05T16:06:13.266Z,98280.87
2023-07-05T16:07:55.544Z,98284.17
2023-07-05T16:09:40.482Z,98290.80
2023-07-05T16:11:27.360Z,98276.10
2023-07-05T16:13:20.458Z,98257.00
2023-07-05T16:15:01.188Z,98224.40
2023-07-05T16:16:45.687Z,98204.42
2023-07-05T16:18:30.772Z,98207.43
2023-07-05T16:20:24.740Z,98208.83
2023-07-05T16:22:10.515Z,98207.52
2023-07-05T16:23:51.663Z,98198.71
2023-07-05T16:25:29.233Z,98191.11
2023-07-05T16:27:18.100Z,98182.06
2023-07-05T16:28:51.925Z,98174.27
2023-07-05T16:30:36.841Z,98167.04
2023-07-05T16:32:10.190Z,98168.19
2023-07-05T16:33:55.186Z,98171.71
2023-07-05T16:35:49.746Z,98172.23
2023-07-05T16:37:18.752Z,98167.78
2023-07-05T16:39:14.167Z,98166.70
2023-07-05T16:40:59.925Z,98158.40
2023-07-05T16:42:44.650Z,98156.92
2023-07-05T16:44:26.508Z,98157.85
2023-07-05T16:45:59.998Z,98159.42
2023-07-05T16:47:44.613Z,98163.04
2023-07-05T16:49:29.849Z,98166.80
2023-07-05T16:51:16.188Z,98170.40
2023-07-05T16:53:01.018Z,98163.41
2023-07-05T16:54:42.605Z,98174.77
2023-07-05T16:56:28.773Z,98173.97
2023-07-05T16:58:08.878Z,98166.15
2023-07-05T16:59:49.883Z,98165.12
2023-07-05T17:01:38.116Z,98160.04
2023-07-05T17:03:23.543Z,98155.19
2023-07-05T17:05:04.238Z,98151.89
2023-07-05T17:06:37.771Z,98146.82
2023-07-05T17:08:22.601Z,98143.58
2023-07-05T17:10:03.320Z,98144.23
2023-07-05T17:11:45.767Z,98141.54
2023-07-05T17:13:19.096Z,98138.95
2023-07-05T17:14:52.654Z,98140.27
2023-07-05T17:16:28.675Z,98139.86
2023-07-05T17:18:14.986Z,98140.18
2023-07-05T17:20:01.908Z,98142.21
2023-07-05T17:21:47.780Z,98145.75
2023-07-05T17:23:32.407Z,98142.25
2023-07-05T17:25:17.120Z,98143.52
2023-07-05T17:27:01.785Z,98144.00
2023-07-05T17:28:46.526Z,98142.77
2023-07-05T17:30:27.019Z,98147.20
2023-07-05T17:32:07.554Z,98149.27
2023-07-05T17:33:38.324Z,98156.89
2023-07-05T17:35:00.240Z,98185.36
2023-07-05T17:36:46.167Z,98231.92
2023-07-05T17:38:15.087Z,98205.16
2023-07-05T17:39:36.871Z,98223.45
2023-07-05T17:41:10.547Z,98218.41
2023-07-05T17:42:45.931Z,98231.01
2023-07-05T17:44:09.971Z,98242.61
2023-07-05T17:45:43.042Z,98255.11
2023-07-05T17:47:18.776Z,98251.33
2023-07-05T17:49:03.543Z,98253.21
2023-07-05T17:50:45.728Z,98261.05
2023-07-05T17:52:21.200Z,98275.00
2023-07-05T17:53:45.307Z,98274.23
2023-07-05T17:55:06.976Z,98285.17
2023-07-05T17:56:28.943Z,98297.63
2023-07-05T17:58:05.121Z,98304.16
2023-07-05T17:59:38.626Z,98315.73
2023-07-05T18:01:11.783Z,98326.04
2023-07-05T18:02:57.692Z,98336.64
2023-07-05T18:04:42.924Z,98350.48
2023-07-05T18:06:17.316Z,98346.06
2023-07-05T18:07:59.659Z,98351.16
2023-07-05T18:09:44.287Z,98353.52
2023-07-05T18:11:25.207Z,98358.92
2023-07-05T18:13:14.421Z,98358.10
2023-07-05T18:14:36.837Z,98361.38
2023-07-05T18:16:05.611Z,98362.66
2023-07-05T18:17:46.781Z,98355.52
2023-07-05T18:19:40.759Z,98351.75
2023-07-05T18:21:29.935Z,98363.12
2023-07-05T18:22:54.259Z,98366.73
2023-07-05T18:24:42.144Z,98370.59
2023-07-05T18:28:17.922Z,98371.91
2023-07-05T18:30:10.871Z,98373.77
2023-07-05T18:31:44.103Z,98376.81
2023-07-05T18:33:28.225Z,98378.55
2023-07-05T18:35:04.171Z,98374.18
2023-07-05T18:36:40.997Z,98372.30
2023-07-05T18:38:06.874Z,98372.42
2023-07-05T18:39:41.694Z,98374.48
2023-07-05T18:41:16.356Z,98368.10
2023-07-05T18:42:51.885Z,98360.56
2023-07-05T18:44:27.824Z,98357.94
2023-07-05T18:46:03.694Z,98346.52
2023-07-05T18:47:48.784Z,98336.05
2023-07-05T18:49:23.208Z,98334.77
2023-07-05T18:50:56.729Z,98328.85
2023-07-05T18:52:30.207Z,98322.98
2023-07-05T18:53:54.095Z,98314.23
2023-07-05T18:55:25.477Z,98311.94
2023-07-05T18:56:47.838Z,98308.29
2023-07-05T18:58:23.049Z,98314.79
2023-07-05T18:59:55.933Z,98316.52
2023-07-05T19:01:36.510Z,98326.29
2023-07-05T19:03:19.831Z,98336.55
2023-07-05T19:05:13.787Z,98342.27
2023-07-05T19:06:47.209Z,98323.67
2023-07-05T19:08:40.776Z,98321.05
2023-07-05T19:10:13.774Z,98326.35
2023-07-05T19:11:49.374Z,98328.38
2023-07-05T19:13:18.176Z,98318.96
2023-07-05T19:14:49.399Z,98317.78
2023-07-05T19:16:13.190Z,98318.77
2023-07-05T19:17:49.459Z,98323.68
2023-07-05T19:19:14.227Z,98324.45
2023-07-05T19:20:46.900Z,98324.63
2023-07-05T19:22:22.794Z,98317.62
2023-07-05T19:23:57.912Z,98317.40
2023-07-05T19:25:51.764Z,98310.80
2023-07-05T19:27:36.633Z,98308.88
2023-07-05T19:29:12.186Z,98309.21
2023-07-05T19:31:00.033Z,98306.67
2023-07-05T19:32:33.381Z,98301.42
2023-07-05T19:34:06.828Z,98295.88
2023-07-05T19:35:42.173Z,98299.88
2023-07-05T19:37:17.814Z,98302.73
2023-07-05T19:38:51.774Z,98300.66
2023-07-05T19:40:27.199Z,98298.59
2023-07-05T19:42:00.546Z,98297.58
2023-07-05T19:43:33.404Z,98297.08
2023-07-05T19:45:06.323Z,98298.86
2023-07-05T19:46:41.864Z,98296.58
2023-07-05T19:48:17.548Z,98296.34
2023-07-05T19:49:46.576Z,98299.25
2023-07-05T19:51:21.798Z,98299.30
2023-07-05T19:52:43.627Z,98303.71
2023-07-05T19:54:18.678Z,98290.48
2023-07-05T19:55:53.307Z,98302.60
2023-07-05T19:59:44.825Z,98291.55
2023-07-05T20:01:29.730Z,98291.65
2023-07-05T20:03:18.725Z,98286.89
2023-07-05T20:04:52.474Z,98290.18
2023-07-05T20:06:41.410Z,98291.66
2023-07-05T20:08:25.042Z,98291.59
2023-07-05T20:10:12.126Z,98285.64
2023-07-05T20:11:49.621Z,98286.61
2023-07-05T20:13:13.281Z,98285.14
2023-07-05T20:14:48.325Z,98287.96
2023-07-05T20:16:33.072Z,98294.57
2023-07-05T20:18:00.368Z,98294.27
2023-07-05T20:19:34.402Z,98299.41
2023-07-05T20:21:17.837Z,98317.27
2023-07-05T20:22:59.912Z,98320.25
2023-07-05T20:24:44.526Z,98320.58
2023-07-05T20:26:26.806Z,98327.23
2023-07-05T20:27:59.801Z,98325.22
2023-07-05T20:29:45.892Z,98334.71
2023-07-05T20:31:20.923Z,98331.33
2023-07-05T20:33:05.781Z,98330.98
2023-07-05T20:34:50.642Z,98333.77
2023-07-05T20:36:38.714Z,98333.02
2023-07-05T20:38:19.290Z,98335.34
2023-07-05T20:40:03.820Z,98327.85
2023-07-05T20:41:35.170Z,98331.82
2023-07-05T20:43:28.245Z,98332.30
2023-07-05T20:44:52.422Z,98330.10
2023-07-05T20:46:38.029Z,98327.07
2023-07-05T20:48:18.335Z,98330.03
2023-07-05T20:49:51.518Z,98331.41
2023-07-05T20:51:27.082Z,98330.22
2023-07-05T20:53:12.064Z,98329.95
2023-07-05T20:54:47.657Z,98330.30
2023-07-05T20:56:28.279Z,98330.40
2023-07-05T20:57:59.546Z,98336.70
2023-07-05T20:59:41.355Z,98326.34
2023-07-05T21:01:30.833Z,98333.58
2023-07-05T21:03:24.649Z,98334.46
2023-07-05T21:04:46.671Z,98330.80
2023-07-05T21:06:13.010Z,98331.98
2023-07-05T21:07:47.147Z,98329.52